createdAt,value
2023-03-06T00:00:18.148Z,98106.91
2023-03-06T00:02:45.668Z,98106.06
2023-03-06T00:05:16.032Z,98101.81
2023-03-06T00:07:43.945Z,98105.88
2023-03-06T00:10:15.866Z,98104.00
2023-03-06T00:12:43.422Z,98106.41
2023-03-06T00:15:11.112Z,98098.13
2023-03-06T00:17:38.974Z,98100.72
2023-03-06T00:20:06.916Z,98098.31
2023-03-06T00:22:34.520Z,98100.91
2023-03-06T00:25:02.054Z,98100.81
2023-03-06T00:27:30.496Z,98103.00
2023-03-06T00:29:58.414Z,98095.78
2023-03-06T00:32:26.402Z,98097.31
2023-03-06T00:34:54.002Z,98092.34
2023-03-06T00:37:22.138Z,98093.38
2023-03-06T00:39:49.813Z,98095.13
2023-03-06T00:42:17.534Z,98085.09
2023-03-06T00:44:44.887Z,98086.03
2023-03-06T00:47:12.569Z,98089.31
2023-03-06T00:49:39.797Z,98087.28
2023-03-06T00:52:07.258Z,98089.97
2023-03-06T00:54:34.767Z,98085.31
2023-03-06T00:57:02.024Z,98073.53
2023-03-06T00:59:29.229Z,98067.63
2023-03-06T01:01:57.374Z,98067.34
2023-03-06T01:04:24.634Z,98058.56
2023-03-06T01:06:51.896Z,98058.78
2023-03-06T01:09:19.474Z,98063.84
2023-03-06T01:11:46.726Z,98059.91
2023-03-06T01:14:13.975Z,98064.47
2023-03-06T01:16:41.567Z,98071.16
2023-03-06T01:19:10.024Z,98059.91
2023-03-06T01:21:37.691Z,98055.88
2023-03-06T01:24:05.294Z,98050.00
2023-03-06T01:26:33.494Z,98051.25
2023-03-06T01:29:00.984Z,98047.53
2023-03-06T01:31:28.662Z,98049.16
2023-03-06T01:33:55.989Z,98051.34
2023-03-06T01:36:23.729Z,98043.78
2023-03-06T01:38:51.289Z,98043.19
2023-03-06T01:41:18.582Z,98035.00
2023-03-06T01:43:47.434Z,98047.00
2023-03-06T01:46:17.986Z,98037.06
2023-03-06T01:48:45.283Z,98042.94
2023-03-06T01:51:12.514Z,98039.25
2023-03-06T01:53:40.086Z,98037.38
2023-03-06T01:56:07.362Z,98036.44
2023-03-06T01:58:34.680Z,98035.63
2023-03-06T02:01:02.281Z,98046.06
2023-03-06T02:03:30.747Z,98038.31
2023-03-06T02:05:59.202Z,98042.97
2023-03-06T02:08:26.439Z,98040.50
2023-03-06T02:11:06.049Z,98032.41
2023-03-06T02:13:33.318Z,98042.84
2023-03-06T02:16:01.149Z,98027.25
2023-03-06T02:18:28.865Z,98034.28
2023-03-06T02:20:57.678Z,98030.25
2023-03-06T02:23:25.521Z,98033.87
2023-03-06T02:25:52.754Z,98029.94
2023-03-06T02:28:21.015Z,98030.88
2023-03-06T02:30:50.496Z,98026.94
2023-03-06T02:33:18.681Z,98030.78
2023-03-06T02:35:56.376Z,98023.22
2023-03-06T02:38:25.493Z,98022.38
2023-03-06T02:40:52.763Z,98023.94
2023-03-06T02:43:24.741Z,98017.84
2023-03-06T02:45:52.581Z,98024.44
2023-03-06T02:48:20.414Z,98027.56
2023-03-06T02:50:48.494Z,98024.06
2023-03-06T02:53:17.561Z,98021.69
2023-03-06T02:55:44.966Z,98024.34
2023-03-06T02:58:12.217Z,98023.94
2023-03-06T03:00:40.227Z,98029.44
2023-03-06T03:03:08.255Z,98023.31
2023-03-06T03:05:35.475Z,98019.91
2023-03-06T03:08:04.249Z,98024.06
2023-03-06T03:10:31.523Z,98027.66
2023-03-06T03:12:59.023Z,98019.47
2023-03-06T03:15:27.006Z,98028.91
2023-03-06T03:17:54.281Z,98014.22
2023-03-06T03:20:21.826Z,98015.06
2023-03-06T03:22:51.608Z,98013.94
2023-03-06T03:25:19.007Z,98014.84
2023-03-06T03:27:46.324Z,98027.03
2023-03-06T03:30:14.327Z,98010.94
2023-03-06T03:32:42.938Z,98015.12
2023-03-06T03:35:10.451Z,98008.66
2023-03-06T03:37:38.115Z,98010.19
2023-03-06T03:40:07.138Z,98005.53
2023-03-06T03:42:34.543Z,98000.38
2023-03-06T03:45:02.789Z,98005.44
2023-03-06T03:47:30.243Z,97999.34
2023-03-06T03:49:57.574Z,97999.25
2023-03-06T03:52:25.342Z,98001.41
2023-03-06T03:54:52.616Z,97995.41
2023-03-06T03:57:20.016Z,97998.50
2023-03-06T03:59:48.099Z,97998.50
2023-03-06T04:02:16.091Z,97996.97
2023-03-06T04:04:44.296Z,97990.34
2023-03-06T04:07:12.809Z,97997.88
2023-03-06T04:09:40.071Z,97993.75
2023-03-06T04:12:08.274Z,97994.38
2023-03-06T04:14:35.763Z,98007.31
2023-03-06T04:17:03.451Z,98004.72
2023-03-06T04:19:31.122Z,98005.75
2023-03-06T04:21:58.646Z,98011.75
2023-03-06T04:24:26.441Z,98009.88
2023-03-06T04:26:54.065Z,98000.88
2023-03-06T04:29:21.367Z,97999.13
2023-03-06T04:31:48.718Z,97994.59
2023-03-06T04:34:17.688Z,97993.62
2023-03-06T04:36:46.153Z,98001.41
2023-03-06T04:39:14.153Z,97998.13
2023-03-06T04:41:42.143Z,97993.34
2023-03-06T04:44:09.750Z,97994.81
2023-03-06T04:46:37.040Z,97996.44
2023-03-06T04:49:04.615Z,97992.72
2023-03-06T04:51:31.857Z,97987.56
2023-03-06T04:54:00.592Z,97986.94
2023-03-06T04:56:28.111Z,97987.56
2023-03-06T04:58:55.446Z,97986.53
2023-03-06T05:01:22.828Z,97986.41
2023-03-06T05:03:50.372Z,97987.75
2023-03-06T05:06:17.742Z,97984.25
2023-03-06T05:08:44.948Z,97986.72
2023-03-06T05:11:13.132Z,97983.09
2023-03-06T05:13:40.342Z,97989.81
2023-03-06T05:16:08.014Z,97990.25
2023-03-06T05:18:35.807Z,97989.81
2023-03-06T05:21:03.765Z,97990.56
2023-03-06T05:23:31.454Z,97985.28
2023-03-06T05:25:59.166Z,97993.84
2023-03-06T05:28:26.588Z,97981.97
2023-03-06T05:30:53.810Z,97985.06
2023-03-06T05:33:21.357Z,97984.66
2023-03-06T05:35:48.877Z,97984.94
2023-03-06T05:38:16.460Z,97981.31
2023-03-06T05:40:44.783Z,97984.22
2023-03-06T05:43:12.178Z,97987.56
2023-03-06T05:45:39.991Z,97982.69
2023-03-06T05:48:07.571Z,97980.50
2023-03-06T05:50:34.821Z,97989.59
2023-03-06T05:53:02.180Z,97994.78
2023-03-06T05:55:30.217Z,97995.00
2023-03-06T05:57:57.627Z,97997.03
2023-03-06T06:00:25.212Z,97994.13
2023-03-06T06:02:52.827Z,97993.28
2023-03-06T06:05:20.094Z,97990.91
2023-03-06T06:07:47.436Z,97993.22
2023-03-06T06:10:15.278Z,97990.72
2023-03-06T06:12:42.509Z,97994.22
2023-03-06T06:15:10.102Z,97995.53
2023-03-06T06:17:37.891Z,98005.06
2023-03-06T06:20:05.335Z,97999.47
2023-03-06T06:22:35.198Z,98014.03
2023-03-06T06:25:03.048Z,98011.22
2023-03-06T06:27:30.321Z,98013.81
2023-03-06T06:29:57.874Z,98010.09
2023-03-06T06:32:25.486Z,98016.72
2023-03-06T06:34:52.791Z,98016.50
2023-03-06T06:37:20.097Z,98012.03
2023-03-06T06:39:47.636Z,98014.63
2023-03-06T06:42:30.517Z,98014.91
2023-03-06T06:45:00.555Z,98009.34
2023-03-06T06:47:27.813Z,98004.34
2023-03-06T06:49:55.504Z,98010.31
2023-03-06T06:52:23.676Z,98011.81
2023-03-06T06:54:51.377Z,98011.28
2023-03-06T06:57:18.590Z,98015.31
2023-03-06T06:59:46.114Z,98016.44
2023-03-06T07:02:14.641Z,98013.13
2023-03-06T07:04:56.171Z,98011.81
2023-03-06T07:07:31.749Z,98018.22
2023-03-06T07:09:59.982Z,98014.25
2023-03-06T07:12:27.967Z,98025.44
2023-03-06T07:14:56.002Z,98024.16
2023-03-06T07:17:23.254Z,98022.72
2023-03-06T07:19:50.540Z,98023.69
2023-03-06T07:22:18.007Z,98033.81
2023-03-06T07:24:45.196Z,98037.59
2023-03-06T07:27:12.402Z,98033.87
2023-03-06T07:29:42.044Z,98026.69
2023-03-06T07:32:09.209Z,98026.28
2023-03-06T07:34:36.371Z,98036.31
2023-03-06T07:37:03.870Z,98034.44
2023-03-06T07:39:32.007Z,98028.56
2023-03-06T07:41:59.137Z,98025.09
2023-03-06T07:44:26.785Z,98017.72
2023-03-06T07:46:54.122Z,98030.00
2023-03-06T07:49:21.974Z,98028.31
2023-03-06T07:51:49.496Z,98023.53
2023-03-06T07:54:17.018Z,98028.31
2023-03-06T07:56:44.217Z,98033.03
2023-03-06T07:59:11.889Z,98034.81
2023-03-06T08:01:40.298Z,98032.78
2023-03-06T08:04:07.899Z,98039.41
2023-03-06T08:06:35.185Z,98039.59
2023-03-06T08:09:02.691Z,98051.25
2023-03-06T08:11:30.670Z,98045.03
2023-03-06T08:13:58.126Z,98037.47
2023-03-06T08:16:26.245Z,98043.00
2023-03-06T08:18:54.046Z,98037.34
2023-03-06T08:21:22.447Z,98021.72
2023-03-06T08:23:49.679Z,98022.66
2023-03-06T08:26:18.000Z,98021.72
2023-03-06T08:28:45.274Z,98017.91
2023-03-06T08:31:13.673Z,98022.94
2023-03-06T08:33:43.774Z,98015.66
2023-03-06T08:36:11.044Z,98011.94
2023-03-06T08:38:38.924Z,98018.16
2023-03-06T08:41:06.606Z,98012.56
2023-03-06T08:43:35.795Z,98013.84
2023-03-06T08:46:03.268Z,98005.97
2023-03-06T08:48:31.013Z,98012.91
2023-03-06T08:50:58.274Z,98011.09
2023-03-06T08:53:40.289Z,98006.38
2023-03-06T08:56:08.536Z,98006.13
2023-03-06T08:58:35.768Z,98009.34
2023-03-06T09:01:07.207Z,98004.91
2023-03-06T09:03:34.895Z,98000.59
2023-03-06T09:06:02.219Z,97999.03
2023-03-06T09:08:29.489Z,98007.31
2023-03-06T09:10:57.993Z,98001.38
2023-03-06T09:13:25.940Z,98002.47
2023-03-06T09:15:54.143Z,98004.50
2023-03-06T09:18:21.733Z,97999.88
2023-03-06T09:20:48.982Z,97991.97
2023-03-06T09:23:16.254Z,97997.47
2023-03-06T09:25:43.840Z,97995.09
2023-03-06T09:28:12.443Z,97989.63
2023-03-06T09:30:40.262Z,97988.81
2023-03-06T09:33:08.194Z,97990.66
2023-03-06T09:35:35.655Z,97988.78
2023-03-06T09:38:02.995Z,97989.41
2023-03-06T09:40:33.910Z,97984.38
2023-03-06T09:43:01.218Z,97982.72
2023-03-06T09:45:28.488Z,97979.31
2023-03-06T09:48:00.754Z,97975.56
2023-03-06T09:50:50.530Z,97977.84
2023-03-06T09:53:36.567Z,97978.03
2023-03-06T09:56:06.390Z,97978.06
2023-03-06T09:58:34.888Z,97981.25
2023-03-06T10:01:22.475Z,97968.97
2023-03-06T10:04:12.990Z,97962.69
2023-03-06T10:06:47.932Z,97964.91
2023-03-06T10:09:18.527Z,97957.94
2023-03-06T10:11:47.619Z,97967.41
2023-03-06T10:14:20.407Z,97969.56
2023-03-06T10:16:48.094Z,97967.56
2023-03-06T10:19:16.930Z,97962.34
2023-03-06T10:21:47.167Z,97958.81
2023-03-06T10:24:34.233Z,97959.06
2023-03-06T10:27:06.581Z,97961.31
2023-03-06T10:29:39.125Z,97962.41
2023-03-06T10:32:11.280Z,97959.69
2023-03-06T10:34:39.669Z,97960.09
2023-03-06T10:37:32.941Z,97960.81
2023-03-06T10:40:08.807Z,97947.28
2023-03-06T10:42:36.961Z,97943.09
2023-03-06T10:45:14.243Z,97939.75
2023-03-06T10:47:41.891Z,97936.44
2023-03-06T10:50:28.931Z,97935.13
2023-03-06T10:53:05.058Z,97926.25
2023-03-06T10:55:36.112Z,97923.66
2023-03-06T10:58:18.858Z,97923.13
2023-03-06T11:00:46.458Z,97912.50
2023-03-06T11:03:13.776Z,97912.78
2023-03-06T11:05:41.050Z,97908.91
2023-03-06T11:08:11.220Z,97902.38
2023-03-06T11:10:38.543Z,97895.22
2023-03-06T11:13:08.982Z,97888.09
2023-03-06T11:15:36.556Z,97888.50
2023-03-06T11:18:05.119Z,97875.81
2023-03-06T11:20:51.404Z,97877.97
2023-03-06T11:23:28.841Z,97864.47
2023-03-06T11:26:02.953Z,97864.56
2023-03-06T11:28:31.775Z,97856.66
2023-03-06T11:30:59.296Z,97850.66
2023-03-06T11:33:40.778Z,97841.88
2023-03-06T11:36:09.700Z,97832.81
2023-03-06T11:38:50.449Z,97811.44
2023-03-06T11:41:29.281Z,97808.16
2023-03-06T11:44:08.558Z,97799.00
2023-03-06T11:46:44.340Z,97793.22
2023-03-06T11:49:26.930Z,97797.78
2023-03-06T11:51:55.883Z,97793.78
2023-03-06T11:54:23.200Z,97796.19
2023-03-06T11:56:57.918Z,97789.13
2023-03-06T11:59:34.753Z,97786.44
2023-03-06T12:02:14.385Z,97783.25
2023-03-06T12:04:56.134Z,97778.50
2023-03-06T12:07:26.663Z,97772.50
2023-03-06T12:09:56.347Z,97775.69
2023-03-06T12:12:29.650Z,97774.03
2023-03-06T12:15:07.055Z,97774.91
2023-03-06T12:17:39.798Z,97765.19
2023-03-06T12:20:23.518Z,97760.81
2023-03-06T12:22:57.580Z,97759.81
2023-03-06T12:25:32.969Z,97738.25
2023-03-06T12:28:19.211Z,97754.69
2023-03-06T12:30:55.658Z,97749.72
2023-03-06T12:33:25.319Z,97746.63
2023-03-06T12:36:17.918Z,97749.84
2023-03-06T12:38:47.499Z,97750.19
2023-03-06T12:41:23.167Z,97743.44
2023-03-06T12:43:50.425Z,97747.72
2023-03-06T12:46:22.014Z,97746.00
2023-03-06T12:49:02.151Z,97741.56
2023-03-06T12:51:29.746Z,97736.47
2023-03-06T12:53:57.578Z,97726.66
2023-03-06T12:56:24.899Z,97729.13
2023-03-06T12:58:53.826Z,97737.56
2023-03-06T13:01:39.860Z,97737.66
2023-03-06T13:04:25.792Z,97728.84
2023-03-06T13:07:18.307Z,97732.00
2023-03-06T13:10:04.926Z,97731.78
2023-03-06T13:12:35.229Z,97726.19
2023-03-06T13:15:22.995Z,97722.69
2023-03-06T13:17:50.236Z,97712.84
2023-03-06T13:20:18.497Z,97707.87
2023-03-06T13:22:46.898Z,97706.28
2023-03-06T13:25:17.240Z,97702.59
2023-03-06T13:27:53.537Z,97707.53
2023-03-06T13:30:21.027Z,97711.12
2023-03-06T13:32:49.347Z,97699.13
2023-03-06T13:35:36.594Z,97699.97
2023-03-06T13:38:04.203Z,97695.56
2023-03-06T13:40:35.021Z,97689.00
2023-03-06T13:43:13.697Z,97690.00
2023-03-06T13:45:43.274Z,97688.34
2023-03-06T13:48:43.648Z,97682.00
2023-03-06T13:51:24.712Z,97679.13
2023-03-06T13:53:55.828Z,97673.59
2023-03-06T13:56:46.737Z,97670.97
2023-03-06T13:59:20.142Z,97670.22
2023-03-06T14:02:03.016Z,97669.94
2023-03-06T14:04:35.614Z,97664.56
2023-03-06T14:07:06.263Z,97666.88
2023-03-06T14:09:38.102Z,97662.69
2023-03-06T14:12:07.309Z,97664.44
2023-03-06T14:14:44.932Z,97665.81
2023-03-06T14:17:15.407Z,97657.94
2023-03-06T14:19:42.980Z,97660.53
2023-03-06T14:22:14.781Z,97653.69
2023-03-06T14:24:43.750Z,97660.41
2023-03-06T14:27:18.794Z,97654.25
2023-03-06T14:29:48.608Z,97655.34
2023-03-06T14:32:16.714Z,97652.78
2023-03-06T14:34:45.883Z,97647.22
2023-03-06T14:37:20.049Z,97651.28
2023-03-06T14:39:47.839Z,97645.97
2023-03-06T14:42:19.051Z,97648.81
2023-03-06T14:44:49.916Z,97646.00
2023-03-06T14:47:21.544Z,97648.81
2023-03-06T14:50:08.849Z,97641.22
2023-03-06T14:52:36.406Z,97639.22
2023-03-06T14:55:03.754Z,97640.94
2023-03-06T14:57:31.032Z,97639.44
2023-03-06T14:59:58.587Z,97637.56
2023-03-06T15:02:26.579Z,97637.38
2023-03-06T15:04:54.970Z,97638.75
2023-03-06T15:07:23.313Z,97644.28
2023-03-06T15:09:51.766Z,97638.69
2023-03-06T15:12:19.824Z,97631.09
2023-03-06T15:14:57.843Z,97635.91
2023-03-06T15:17:28.144Z,97638.78
2023-03-06T15:19:56.480Z,97635.34
2023-03-06T15:22:28.867Z,97631.22
2023-03-06T15:25:11.768Z,97629.34
2023-03-06T15:27:39.033Z,97631.66
2023-03-06T15:30:33.393Z,97631.91
2023-03-06T15:33:10.023Z,97632.34
2023-03-06T15:35:38.346Z,97629.22
2023-03-06T15:38:21.408Z,97630.06
2023-03-06T15:40:56.091Z,97634.09
2023-03-06T15:43:23.316Z,97636.72
2023-03-06T15:45:51.281Z,97633.44
2023-03-06T15:48:18.635Z,97623.72
2023-03-06T15:50:45.992Z,97633.69
2023-03-06T15:53:15.566Z,97626.03
2023-03-06T15:55:42.825Z,97627.94
2023-03-06T15:58:10.112Z,97631.88
2023-03-06T16:00:40.916Z,97630.78
2023-03-06T16:03:11.739Z,97634.06
2023-03-06T16:05:39.057Z,97648.09
2023-03-06T16:08:06.460Z,97641.81
2023-03-06T16:10:35.319Z,97639.63
2023-03-06T16:13:06.740Z,97636.03
2023-03-06T16:15:37.881Z,97631.09
2023-03-06T16:18:06.217Z,97629.84
2023-03-06T16:20:33.817Z,97637.28
2023-03-06T16:23:01.150Z,97646.28
2023-03-06T16:25:28.918Z,97635.56
2023-03-06T16:27:59.977Z,97647.81
2023-03-06T16:30:28.175Z,97644.94
2023-03-06T16:32:55.509Z,97653.97
2023-03-06T16:35:23.177Z,97646.47
2023-03-06T16:37:50.809Z,97657.53
2023-03-06T16:40:22.266Z,97651.06
2023-03-06T16:42:50.157Z,97654.03
2023-03-06T16:45:17.932Z,97658.97
2023-03-06T16:47:45.751Z,97663.72
2023-03-06T16:50:24.310Z,97657.69
2023-03-06T16:52:52.391Z,97661.37
2023-03-06T16:55:20.006Z,97659.06
2023-03-06T16:57:47.228Z,97662.47
2023-03-06T17:00:15.869Z,97660.25
2023-03-06T17:02:43.486Z,97655.56
2023-03-06T17:05:11.044Z,97652.84
2023-03-06T17:07:38.697Z,97659.59
2023-03-06T17:10:07.031Z,97649.31
2023-03-06T17:12:34.533Z,97651.38
2023-03-06T17:15:02.011Z,97652.19
2023-03-06T17:17:29.606Z,97649.28
2023-03-06T17:19:57.027Z,97649.97
2023-03-06T17:22:24.316Z,97661.13
2023-03-06T17:24:52.262Z,97655.16
2023-03-06T17:27:21.214Z,97646.87
2023-03-06T17:29:48.592Z,97653.34
2023-03-06T17:32:16.222Z,97656.94
2023-03-06T17:34:43.563Z,97653.13
2023-03-06T17:37:10.876Z,97652.31
2023-03-06T17:39:38.922Z,97663.97
2023-03-06T17:42:06.618Z,97661.22
2023-03-06T17:44:34.404Z,97659.34
2023-03-06T17:47:02.378Z,97664.41
2023-03-06T17:49:29.770Z,97654.22
2023-03-06T17:51:58.055Z,97656.25
2023-03-06T17:54:26.514Z,97653.78
2023-03-06T17:56:53.753Z,97659.47
2023-03-06T17:59:21.002Z,97661.00
2023-03-06T18:01:48.564Z,97657.72
2023-03-06T18:04:16.925Z,97659.34
2023-03-06T18:06:44.178Z,97661.34
2023-03-06T18:09:11.400Z,97664.91
2023-03-06T18:11:39.061Z,97658.63
2023-03-06T18:14:09.570Z,97656.16
2023-03-06T18:16:36.840Z,97657.97
2023-03-06T18:19:04.444Z,97659.03
2023-03-06T18:21:31.743Z,97653.28
2023-03-06T18:23:59.023Z,97651.97
2023-03-06T18:26:27.310Z,97649.72
2023-03-06T18:28:55.754Z,97642.81
2023-03-06T18:31:25.890Z,97635.84
2023-03-06T18:33:54.917Z,97648.81
2023-03-06T18:36:25.877Z,97656.09
2023-03-06T18:38:53.171Z,97655.31
2023-03-06T18:41:20.944Z,97653.63
2023-03-06T18:43:54.844Z,97664.59
2023-03-06T18:46:22.448Z,97675.66
2023-03-06T18:48:49.957Z,97673.31
2023-03-06T18:51:17.829Z,97672.84
2023-03-06T18:53:45.592Z,97672.38
2023-03-06T18:56:17.749Z,97674.84
2023-03-06T18:58:45.375Z,97670.25
2023-03-06T19:01:12.668Z,97675.78
2023-03-06T19:03:40.344Z,97683.56
2023-03-06T19:06:09.168Z,97691.09
2023-03-06T19:08:37.303Z,97684.63
2023-03-06T19:11:05.815Z,97685.31
2023-03-06T19:13:33.476Z,97694.59
2023-03-06T19:16:01.016Z,97682.84
2023-03-06T19:18:28.324Z,97680.59
2023-03-06T19:20:56.647Z,97673.28
2023-03-06T19:23:23.922Z,97657.97
2023-03-06T19:25:58.166Z,97657.12
2023-03-06T19:28:27.190Z,97658.22
2023-03-06T19:30:54.476Z,97653.28
2023-03-06T19:33:21.878Z,97650.59
2023-03-06T19:35:49.442Z,97646.31
2023-03-06T19:38:16.775Z,97645.84
2023-03-06T19:40:50.206Z,97645.28
2023-03-06T19:43:17.772Z,97656.56
2023-03-06T19:45:45.080Z,97653.97
2023-03-06T19:48:13.495Z,97660.00
2023-03-06T19:50:41.055Z,97652.59
2023-03-06T19:53:08.454Z,97651.44
2023-03-06T19:55:35.782Z,97656.13
2023-03-06T19:58:03.638Z,97653.87
2023-03-06T20:00:30.942Z,97658.22
2023-03-06T20:02:58.496Z,97652.56
2023-03-06T20:05:25.849Z,97650.69
2023-03-06T20:07:53.194Z,97653.03
2023-03-06T20:10:20.733Z,97651.47
2023-03-06T20:12:48.035Z,97651.97
2023-03-06T20:15:15.306Z,97648.78
2023-03-06T20:17:42.994Z,97653.50
2023-03-06T20:20:10.844Z,97658.34
2023-03-06T20:22:38.209Z,97653.97
2023-03-06T20:25:05.944Z,97652.13
2023-03-06T20:27:33.513Z,97653.50
2023-03-06T20:30:01.150Z,97656.31
2023-03-06T20:32:31.234Z,97654.91
2023-03-06T20:34:58.454Z,97658.34
2023-03-06T20:37:27.343Z,97656.22
2023-03-06T20:39:54.890Z,97658.84
2023-03-06T20:42:22.146Z,97662.72
2023-03-06T20:44:49.369Z,97666.97
2023-03-06T20:47:17.102Z,97672.75
2023-03-06T20:49:44.360Z,97676.16
2023-03-06T20:52:11.617Z,97670.72
2023-03-06T20:54:39.602Z,97672.03
2023-03-06T20:57:06.889Z,97668.50
2023-03-06T20:59:34.176Z,97667.69
2023-03-06T21:02:01.797Z,97674.28
2023-03-06T21:04:29.095Z,97672.62
2023-03-06T21:06:56.346Z,97674.03
2023-03-06T21:09:23.879Z,97677.44
2023-03-06T21:11:51.121Z,97678.97
2023-03-06T21:14:18.411Z,97684.03
2023-03-06T21:16:45.988Z,97686.38
2023-03-06T21:19:13.266Z,97677.28
2023-03-06T21:21:40.541Z,97677.66
2023-03-06T21:24:08.108Z,97676.72
2023-03-06T21:26:35.450Z,97672.97
2023-03-06T21:29:02.695Z,97672.16
2023-03-06T21:31:30.343Z,97670.97
2023-03-06T21:33:58.666Z,97676.37
2023-03-06T21:36:26.125Z,97676.16
2023-03-06T21:38:53.756Z,97678.63
2023-03-06T21:41:24.858Z,97672.62
2023-03-06T21:43:56.096Z,97680.50
2023-03-06T21:46:24.097Z,97678.84
2023-03-06T21:48:51.506Z,97676.75
2023-03-06T21:51:19.608Z,97667.94
2023-03-06T21:53:47.721Z,97664.38
2023-03-06T21:56:16.284Z,97669.34
2023-03-06T21:58:43.809Z,97667.31
2023-03-06T22:01:12.189Z,97668.87
2023-03-06T22:03:39.843Z,97669.34
2023-03-06T22:06:08.131Z,97665.78
2023-03-06T22:08:35.360Z,97672.50
2023-03-06T22:11:07.013Z,97668.63
2023-03-06T22:13:34.240Z,97668.22
2023-03-06T22:16:01.453Z,97676.84
2023-03-06T22:18:29.001Z,97672.81
2023-03-06T22:20:58.996Z,97665.78
2023-03-06T22:23:26.272Z,97674.75
2023-03-06T22:25:54.349Z,97663.31
2023-03-06T22:28:21.656Z,97661.78
2023-03-06T22:30:48.936Z,97659.91
2023-03-06T22:33:16.453Z,97657.06
2023-03-06T22:35:43.757Z,97662.47
2023-03-06T22:38:11.058Z,97660.59
2023-03-06T22:40:39.536Z,97664.22
2023-03-06T22:43:06.762Z,97663.97
2023-03-06T22:45:34.730Z,97665.66
2023-03-06T22:48:10.365Z,97664.84
2023-03-06T22:50:38.241Z,97669.78
2023-03-06T22:53:05.758Z,97673.06
2023-03-06T22:55:34.462Z,97672.81
2023-03-06T22:58:01.700Z,97672.12
2023-03-06T23:00:29.389Z,97671.78
2023-03-06T23:02:56.530Z,97672.59
2023-03-06T23:05:24.536Z,97675.25
2023-03-06T23:07:52.138Z,97668.50
2023-03-06T23:10:19.413Z,97666.63
2023-03-06T23:13:05.679Z,97663.59
2023-03-06T23:15:51.948Z,97666.41
2023-03-06T23:18:38.026Z,97662.22
2023-03-06T23:21:24.292Z,97664.25
2023-03-06T23:24:09.786Z,97666.72
2023-03-06T23:26:37.415Z,97663.97
2023-03-06T23:29:04.636Z,97666.63
2023-03-06T23:31:32.244Z,97670.13
2023-03-06T23:34:00.805Z,97666.84
2023-03-06T23:36:28.647Z,97671.47
2023-03-06T23:38:55.893Z,97667.38
2023-03-06T23:41:23.771Z,97665.62
2023-03-06T23:43:51.997Z,97664.06
2023-03-06T23:46:20.817Z,97668.09
2023-03-06T23:48:48.407Z,97664.25
2023-03-06T23:51:16.903Z,97670.44
2023-03-06T23:53:44.843Z,97666.94
2023-03-06T23:56:12.439Z,97668.56
2023-03-06T23:58:39.734Z,97669.78
